sensor_id;sensor_type;location;lat;lon;timestamp;pressure;altitude;pressure_sealevel;temperature;humidity
67740;BME280;54536;50.090;14.420;2023-02-04T00:01:40;99483.91;;;8.60;51.69
67740;BME280;54536;50.090;14.420;2023-02-04T00:04:06;99464.56;;;8.72;52.42
67740;BME280;54536;50.090;14.420;2023-02-04T00:06:32;99466.66;;;8.57;51.43
67740;BME280;54536;50.090;14.420;2023-02-04T00:08:58;99468.28;;;8.70;52.00
67740;BME280;54536;50.090;14.420;2023-02-04T00:11:24;99460.91;;;8.63;52.65
67740;BME280;54536;50.090;14.420;2023-02-04T00:13:50;99476.31;;;8.57;51.72
67740;BME280;54536;50.090;14.420;2023-02-04T00:16:16;99479.41;;;8.51;52.32
67740;BME280;54536;50.090;14.420;2023-02-04T00:18:42;99487.13;;;8.52;52.64
67740;BME280;54536;50.090;14.420;2023-02-04T00:21:09;99482.13;;;8.49;52.20
67740;BME280;54536;50.090;14.420;2023-02-04T00:23:35;99499.78;;;8.47;53.14
67740;BME280;54536;50.090;14.420;2023-02-04T00:26:02;99478.31;;;8.53;53.67
67740;BME280;54536;50.090;14.420;2023-02-04T00:28:28;99483.34;;;8.45;52.16
67740;BME280;54536;50.090;14.420;2023-02-04T00:30:54;99509.38;;;8.35;53.08
67740;BME280;54536;50.090;14.420;2023-02-04T00:33:20;99494.28;;;8.39;52.87
67740;BME280;54536;50.090;14.420;2023-02-04T00:35:46;99494.88;;;8.31;53.17
67740;BME280;54536;50.090;14.420;2023-02-04T00:38:12;99503.31;;;8.24;53.98
67740;BME280;54536;50.090;14.420;2023-02-04T00:40:38;99510.00;;;8.39;53.31
67740;BME280;54536;50.090;14.420;2023-02-04T00:43:04;99511.81;;;8.38;53.69
67740;BME280;54536;50.090;14.420;2023-02-04T00:45:30;99517.13;;;8.37;53.70
67740;BME280;54536;50.090;14.420;2023-02-04T00:47:56;99513.94;;;8.44;53.30
67740;BME280;54536;50.090;14.420;2023-02-04T00:50:23;99510.00;;;8.39;52.93
67740;BME280;54536;50.090;14.420;2023-02-04T00:52:49;99527.88;;;8.45;53.09
67740;BME280;54536;50.090;14.420;2023-02-04T00:55:15;99536.13;;;8.40;53.58
67740;BME280;54536;50.090;14.420;2023-02-04T00:57:44;99537.63;;;8.32;53.93
67740;BME280;54536;50.090;14.420;2023-02-04T01:00:14;99524.16;;;8.36;54.47
67740;BME280;54536;50.090;14.420;2023-02-04T01:02:41;99546.91;;;8.36;53.38
67740;BME280;54536;50.090;14.420;2023-02-04T01:05:07;99539.41;;;8.31;54.35
67740;BME280;54536;50.090;14.420;2023-02-04T01:07:34;99581.56;;;8.28;53.95
67740;BME280;54536;50.090;14.420;2023-02-04T01:10:00;99552.38;;;8.33;54.11
67740;BME280;54536;50.090;14.420;2023-02-04T01:12:26;99547.59;;;8.27;54.88
67740;BME280;54536;50.090;14.420;2023-02-04T01:14:54;99573.56;;;8.30;54.58
67740;BME280;54536;50.090;14.420;2023-02-04T01:17:20;99565.00;;;8.28;55.50
67740;BME280;54536;50.090;14.420;2023-02-04T01:19:47;99593.31;;;8.23;55.17
67740;BME280;54536;50.090;14.420;2023-02-04T01:22:13;99590.25;;;8.17;57.02
67740;BME280;54536;50.090;14.420;2023-02-04T01:24:39;99616.44;;;8.29;57.76
67740;BME280;54536;50.090;14.420;2023-02-04T01:27:05;99665.84;;;8.33;57.79
67740;BME280;54536;50.090;14.420;2023-02-04T01:29:31;99663.91;;;8.13;59.33
67740;BME280;54536;50.090;14.420;2023-02-04T01:31:57;99681.19;;;8.15;59.92
67740;BME280;54536;50.090;14.420;2023-02-04T01:34:24;99693.91;;;8.09;61.22
67740;BME280;54536;50.090;14.420;2023-02-04T01:36:53;99719.69;;;8.02;59.82
67740;BME280;54536;50.090;14.420;2023-02-04T01:39:19;99704.03;;;7.89;56.86
67740;BME280;54536;50.090;14.420;2023-02-04T01:41:45;99722.38;;;7.89;56.48
67740;BME280;54536;50.090;14.420;2023-02-04T01:44:12;99746.94;;;7.76;56.22
67740;BME280;54536;50.090;14.420;2023-02-04T01:46:38;99748.81;;;7.73;54.55
67740;BME280;54536;50.090;14.420;2023-02-04T01:49:05;99744.19;;;7.77;55.20
67740;BME280;54536;50.090;14.420;2023-02-04T01:51:32;99753.56;;;7.68;54.35
67740;BME280;54536;50.090;14.420;2023-02-04T01:53:59;99751.28;;;7.51;55.02
67740;BME280;54536;50.090;14.420;2023-02-04T01:56:26;99756.50;;;7.51;55.34
67740;BME280;54536;50.090;14.420;2023-02-04T01:58:56;99772.72;;;7.56;55.20
67740;BME280;54536;50.090;14.420;2023-02-04T02:04:00;99780.59;;;7.43;55.25
67740;BME280;54536;50.090;14.420;2023-02-04T02:06:27;99811.47;;;7.38;55.55
67740;BME280;54536;50.090;14.420;2023-02-04T02:08:54;99824.03;;;7.33;55.14
67740;BME280;54536;50.090;14.420;2023-02-04T02:11:20;99818.28;;;7.28;55.03
67740;BME280;54536;50.090;14.420;2023-02-04T02:13:46;99827.69;;;7.18;55.35
67740;BME280;54536;50.090;14.420;2023-02-04T02:16:12;99853.63;;;7.21;54.89
67740;BME280;54536;50.090;14.420;2023-02-04T02:18:39;99854.78;;;7.17;55.37
67740;BME280;54536;50.090;14.420;2023-02-04T02:21:08;99859.91;;;7.18;53.73
67740;BME280;54536;50.090;14.420;2023-02-04T02:23:50;99898.06;;;7.08;52.77
67740;BME280;54536;50.090;14.420;2023-02-04T02:26:19;99897.31;;;7.06;52.86
67740;BME280;54536;50.090;14.420;2023-02-04T02:28:48;99900.81;;;7.07;52.56
67740;BME280;54536;50.090;14.420;2023-02-04T02:31:18;99907.91;;;7.04;52.57
67740;BME280;54536;50.090;14.420;2023-02-04T02:33:46;99921.28;;;7.13;52.62
67740;BME280;54536;50.090;14.420;2023-02-04T02:36:12;99933.72;;;7.09;52.17
67740;BME280;54536;50.090;14.420;2023-02-04T02:38:40;99934.25;;;7.01;53.15
67740;BME280;54536;50.090;14.420;2023-02-04T02:41:06;99934.34;;;7.00;53.06
67740;BME280;54536;50.090;14.420;2023-02-04T02:43:37;99944.38;;;7.06;52.08
67740;BME280;54536;50.090;14.420;2023-02-04T02:46:04;99945.88;;;7.10;51.15
67740;BME280;54536;50.090;14.420;2023-02-04T02:48:31;99955.88;;;6.91;51.57
67740;BME280;54536;50.090;14.420;2023-02-04T02:50:57;99965.56;;;6.89;50.81
67740;BME280;54536;50.090;14.420;2023-02-04T02:53:23;99982.41;;;6.85;50.31
67740;BME280;54536;50.090;14.420;2023-02-04T02:55:50;99971.69;;;6.75;50.91
67740;BME280;54536;50.090;14.420;2023-02-04T02:58:32;99995.66;;;6.82;50.33
67740;BME280;54536;50.090;14.420;2023-02-04T03:01:02;99988.06;;;6.64;50.87
67740;BME280;54536;50.090;14.420;2023-02-04T03:03:36;100019.50;;;6.63;50.92
67740;BME280;54536;50.090;14.420;2023-02-04T03:06:12;100012.13;;;6.55;51.47
67740;BME280;54536;50.090;14.420;2023-02-04T03:08:42;100036.50;;;6.55;51.83
67740;BME280;54536;50.090;14.420;2023-02-04T03:11:09;100036.50;;;6.55;52.27
67740;BME280;54536;50.090;14.420;2023-02-04T03:13:37;100040.97;;;6.53;54.26
67740;BME280;54536;50.090;14.420;2023-02-04T03:16:04;100073.44;;;6.49;52.12
67740;BME280;54536;50.090;14.420;2023-02-04T03:18:31;100066.63;;;6.47;52.52
67740;BME280;54536;50.090;14.420;2023-02-04T03:20:57;100087.06;;;6.26;54.86
67740;BME280;54536;50.090;14.420;2023-02-04T03:23:24;100097.97;;;6.32;55.47
67740;BME280;54536;50.090;14.420;2023-02-04T03:25:53;100100.75;;;6.29;57.23
67740;BME280;54536;50.090;14.420;2023-02-04T03:28:19;100105.09;;;6.15;57.38
67740;BME280;54536;50.090;14.420;2023-02-04T03:30:45;100109.53;;;6.28;57.51
67740;BME280;54536;50.090;14.420;2023-02-04T03:33:18;100119.59;;;6.20;58.20
67740;BME280;54536;50.090;14.420;2023-02-04T03:35:44;100128.53;;;6.16;57.47
67740;BME280;54536;50.090;14.420;2023-02-04T03:38:10;100134.94;;;6.10;57.79
67740;BME280;54536;50.090;14.420;2023-02-04T03:40:36;100147.19;;;6.24;57.27
67740;BME280;54536;50.090;14.420;2023-02-04T03:43:02;100158.03;;;6.18;56.88
67740;BME280;54536;50.090;14.420;2023-02-04T03:45:28;100175.38;;;6.19;56.28
67740;BME280;54536;50.090;14.420;2023-02-04T03:47:55;100173.50;;;6.21;55.14
67740;BME280;54536;50.090;14.420;2023-02-04T03:50:20;100183.72;;;6.10;55.39
67740;BME280;54536;50.090;14.420;2023-02-04T03:52:47;100189.13;;;6.07;55.08
67740;BME280;54536;50.090;14.420;2023-02-04T03:55:14;100192.56;;;6.07;54.80
67740;BME280;54536;50.090;14.420;2023-02-04T03:57:40;100192.91;;;6.01;53.37
67740;BME280;54536;50.090;14.420;2023-02-04T04:00:07;100202.44;;;6.02;54.05
67740;BME280;54536;50.090;14.420;2023-02-04T04:02:34;100215.56;;;6.01;54.02
67740;BME280;54536;50.090;14.420;2023-02-04T04:05:00;100232.25;;;5.98;53.35
67740;BME280;54536;50.090;14.420;2023-02-04T04:07:26;100228.97;;;5.95;54.00
67740;BME280;54536;50.090;14.420;2023-02-04T04:09:52;100249.00;;;5.94;53.69
67740;BME280;54536;50.090;14.420;2023-02-04T04:12:18;100263.41;;;6.01;53.34
67740;BME280;54536;50.090;14.420;2023-02-04T04:14:44;100268.22;;;5.93;52.93
67740;BME280;54536;50.090;14.420;2023-02-04T04:17:11;100284.66;;;5.95;52.24
67740;BME280;54536;50.090;14.420;2023-02-04T04:19:36;100296.59;;;5.99;51.75
67740;BME280;54536;50.090;14.420;2023-02-04T04:22:03;100292.78;;;5.73;51.96
67740;BME280;54536;50.090;14.420;2023-02-04T04:24:29;100313.56;;;5.91;51.50
67740;BME280;54536;50.090;14.420;2023-02-04T04:26:55;100327.31;;;5.94;51.30
67740;BME280;54536;50.090;14.420;2023-02-04T04:29:21;100321.09;;;5.97;50.44
67740;BME280;54536;50.090;14.420;2023-02-04T04:31:47;100336.09;;;5.93;50.31
67740;BME280;54536;50.090;14.420;2023-02-04T04:34:13;100347.09;;;5.98;51.31
67740;BME280;54536;50.090;14.420;2023-02-04T04:36:39;100352.72;;;5.91;50.58
67740;BME280;54536;50.090;14.420;2023-02-04T04:39:05;100356.41;;;5.71;49.67
67740;BME280;54536;50.090;14.420;2023-02-04T04:41:31;100371.06;;;5.73;49.88
67740;BME280;54536;50.090;14.420;2023-02-04T04:43:57;100383.31;;;5.71;50.29
67740;BME280;54536;50.090;14.420;2023-02-04T04:46:23;100396.84;;;5.79;49.80
67740;BME280;54536;50.090;14.420;2023-02-04T04:48:49;100397.50;;;5.83;49.41
67740;BME280;54536;50.090;14.420;2023-02-04T04:51:15;100396.91;;;5.95;48.90
67740;BME280;54536;50.090;14.420;2023-02-04T04:53:41;100412.00;;;5.89;49.30
67740;BME280;54536;50.090;14.420;2023-02-04T04:56:07;100412.31;;;5.82;48.84
67740;BME280;54536;50.090;14.420;2023-02-04T04:58:33;100422.78;;;5.82;49.14
67740;BME280;54536;50.090;14.420;2023-02-04T05:01:17;100432.13;;;5.86;48.68
67740;BME280;54536;50.090;14.420;2023-02-04T05:03:46;100444.22;;;5.87;48.63
67740;BME280;54536;50.090;14.420;2023-02-04T05:06:12;100439.38;;;5.64;48.89
67740;BME280;54536;50.090;14.420;2023-02-04T05:08:38;100466.28;;;5.82;48.59
67740;BME280;54536;50.090;14.420;2023-02-04T05:11:04;100459.16;;;5.85;49.89
67740;BME280;54536;50.090;14.420;2023-02-04T05:13:30;100464.69;;;5.79;49.00
67740;BME280;54536;50.090;14.420;2023-02-04T05:15:56;100474.72;;;5.87;48.34
67740;BME280;54536;50.090;14.420;2023-02-04T05:18:23;100482.84;;;5.81;48.03
67740;BME280;54536;50.090;14.420;2023-02-04T05:20:49;100499.44;;;5.80;48.64
67740;BME280;54536;50.090;14.420;2023-02-04T05:23:15;100500.56;;;5.92;49.27
67740;BME280;54536;50.090;14.420;2023-02-04T05:25:42;100507.28;;;5.97;48.91
67740;BME280;54536;50.090;14.420;2023-02-04T05:28:08;100513.97;;;5.85;48.92
67740;BME280;54536;50.090;14.420;2023-02-04T05:30:34;100527.47;;;5.76;48.50
67740;BME280;54536;50.090;14.420;2023-02-04T05:33:00;100529.78;;;5.82;49.80
67740;BME280;54536;50.090;14.420;2023-02-04T05:35:26;100547.81;;;5.70;48.41
67740;BME280;54536;50.090;14.420;2023-02-04T05:37:52;100554.19;;;5.64;49.85
67740;BME280;54536;50.090;14.420;2023-02-04T05:40:19;100554.81;;;5.69;49.75
67740;BME280;54536;50.090;14.420;2023-02-04T05:42:45;100561.22;;;5.62;48.65
67740;BME280;54536;50.090;14.420;2023-02-04T05:45:14;100575.06;;;5.64;48.59
67740;BME280;54536;50.090;14.420;2023-02-04T05:47:42;100580.19;;;5.66;48.33
67740;BME280;54536;50.090;14.420;2023-02-04T05:50:08;100579.97;;;5.70;48.69
67740;BME280;54536;50.090;14.420;2023-02-04T05:52:34;100586.56;;;5.77;47.95
67740;BME280;54536;50.090;14.420;2023-02-04T05:55:00;100596.69;;;5.83;47.55
67740;BME280;54536;50.090;14.420;2023-02-04T05:57:26;100600.84;;;5.87;47.76
67740;BME280;54536;50.090;14.420;2023-02-04T05:59:52;100607.97;;;5.84;46.69
67740;BME280;54536;50.090;14.420;2023-02-04T06:02:18;100604.13;;;5.93;46.99
67740;BME280;54536;50.090;14.420;2023-02-04T06:04:44;100616.94;;;5.97;47.11
67740;BME280;54536;50.090;14.420;2023-02-04T06:07:11;100628.31;;;5.96;46.45
67740;BME280;54536;50.090;14.420;2023-02-04T06:09:37;100632.69;;;5.96;45.82
67740;BME280;54536;50.090;14.420;2023-02-04T06:12:03;100640.78;;;5.90;46.59
67740;BME280;54536;50.090;14.420;2023-02-04T06:14:29;100634.63;;;5.91;47.46
67740;BME280;54536;50.090;14.420;2023-02-04T06:16:55;100638.47;;;5.83;47.33
67740;BME280;54536;50.090;14.420;2023-02-04T06:19:21;100653.88;;;5.88;46.43
67740;BME280;54536;50.090;14.420;2023-02-04T06:21:48;100653.00;;;5.89;47.06
67740;BME280;54536;50.090;14.420;2023-02-04T06:24:14;100659.88;;;5.90;47.25
67740;BME280;54536;50.090;14.420;2023-02-04T06:26:40;100661.56;;;5.74;46.44
67740;BME280;54536;50.090;14.420;2023-02-04T06:29:06;100663.22;;;5.94;48.25
67740;BME280;54536;50.090;14.420;2023-02-04T06:31:32;100676.41;;;5.91;46.93
67740;BME280;54536;50.090;14.420;2023-02-04T06:33:58;100668.81;;;5.86;46.44
67740;BME280;54536;50.090;14.420;2023-02-04T06:36:24;100684.66;;;5.81;46.66
67740;BME280;54536;50.090;14.420;2023-02-04T06:38:50;100700.81;;;5.90;47.50
67740;BME280;54536;50.090;14.420;2023-02-04T06:41:17;100699.72;;;5.95;46.64
67740;BME280;54536;50.090;14.420;2023-02-04T06:43:42;100710.06;;;5.97;46.22
67740;BME280;54536;50.090;14.420;2023-02-04T06:46:09;100718.97;;;5.93;46.24
67740;BME280;54536;50.090;14.420;2023-02-04T06:48:35;100726.44;;;5.81;46.16
67740;BME280;54536;50.090;14.420;2023-02-04T06:51:01;100731.59;;;5.83;45.42
67740;BME280;54536;50.090;14.420;2023-02-04T06:53:27;100749.91;;;5.81;46.80
67740;BME280;54536;50.090;14.420;2023-02-04T06:55:53;100745.28;;;5.69;46.14
67740;BME280;54536;50.090;14.420;2023-02-04T06:58:19;100751.06;;;5.76;46.48
67740;BME280;54536;50.090;14.420;2023-02-04T07:00:45;100773.63;;;5.77;46.04
67740;BME280;54536;50.090;14.420;2023-02-04T07:03:11;100776.03;;;5.81;45.58
67740;BME280;54536;50.090;14.420;2023-02-04T07:05:37;100785.56;;;5.82;45.48
67740;BME280;54536;50.090;14.420;2023-02-04T07:08:03;100795.53;;;5.92;46.51
67740;BME280;54536;50.090;14.420;2023-02-04T07:10:30;100806.06;;;5.90;45.72
67740;BME280;54536;50.090;14.420;2023-02-04T07:12:57;100802.69;;;5.88;46.08
67740;BME280;54536;50.090;14.420;2023-02-04T07:15:23;100808.50;;;5.95;45.48
67740;BME280;54536;50.090;14.420;2023-02-04T07:17:49;100818.19;;;5.93;45.54
67740;BME280;54536;50.090;14.420;2023-02-04T07:20:16;100819.81;;;5.95;46.80
67740;BME280;54536;50.090;14.420;2023-02-04T07:22:42;100830.06;;;5.98;46.25
67740;BME280;54536;50.090;14.420;2023-02-04T07:25:09;100833.84;;;5.93;46.14
67740;BME280;54536;50.090;14.420;2023-02-04T07:27:36;100845.69;;;6.00;47.51
67740;BME280;54536;50.090;14.420;2023-02-04T07:30:02;100852.41;;;6.05;46.44
67740;BME280;54536;50.090;14.420;2023-02-04T07:32:29;100851.19;;;6.13;46.55
67740;BME280;54536;50.090;14.420;2023-02-04T07:34:59;100853.00;;;6.10;47.19
67740;BME280;54536;50.090;14.420;2023-02-04T07:37:25;100857.91;;;6.18;45.82
67740;BME280;54536;50.090;14.420;2023-02-04T07:39:51;100865.59;;;6.21;45.64
67740;BME280;54536;50.090;14.420;2023-02-04T07:42:17;100873.97;;;6.28;46.52
67740;BME280;54536;50.090;14.420;2023-02-04T07:44:44;100872.69;;;6.37;47.00
67740;BME280;54536;50.090;14.420;2023-02-04T07:47:10;100880.94;;;6.27;46.38
67740;BME280;54536;50.090;14.420;2023-02-04T07:49:38;100887.31;;;6.22;47.07
67740;BME280;54536;50.090;14.420;2023-02-04T07:52:04;100888.63;;;6.30;47.45
67740;BME280;54536;50.090;14.420;2023-02-04T07:54:30;100888.63;;;6.30;49.43
67740;BME280;54536;50.090;14.420;2023-02-04T07:56:57;100901.50;;;6.16;48.51
67740;BME280;54536;50.090;14.420;2023-02-04T07:59:23;100897.78;;;6.22;48.82
67740;BME280;54536;50.090;14.420;2023-02-04T08:01:49;100909.75;;;6.26;48.41
67740;BME280;54536;50.090;14.420;2023-02-04T08:04:15;100914.84;;;6.29;48.42
67740;BME280;54536;50.090;14.420;2023-02-04T08:06:41;100909.13;;;6.21;48.19
67740;BME280;54536;50.090;14.420;2023-02-04T08:09:08;100916.91;;;6.22;48.41
67740;BME280;54536;50.090;14.420;2023-02-04T08:11:34;100924.94;;;6.18;48.18
67740;BME280;54536;50.090;14.420;2023-02-04T08:14:00;100928.47;;;6.17;47.74
67740;BME280;54536;50.090;14.420;2023-02-04T08:16:26;100942.31;;;6.19;47.47
67740;BME280;54536;50.090;14.420;2023-02-04T08:18:53;100938.03;;;5.97;45.99
67740;BME280;54536;50.090;14.420;2023-02-04T08:21:18;100934.72;;;5.94;45.46
67740;BME280;54536;50.090;14.420;2023-02-04T08:23:45;100946.44;;;6.04;45.35
67740;BME280;54536;50.090;14.420;2023-02-04T08:26:11;100957.28;;;6.15;44.67
67740;BME280;54536;50.090;14.420;2023-02-04T08:28:37;100956.72;;;6.08;43.95
67740;BME280;54536;50.090;14.420;2023-02-04T08:31:04;100969.53;;;6.13;42.50
67740;BME280;54536;50.090;14.420;2023-02-04T08:33:32;100960.16;;;6.09;42.42
67740;BME280;54536;50.090;14.420;2023-02-04T08:35:58;100964.91;;;6.39;43.08
67740;BME280;54536;50.090;14.420;2023-02-04T08:38:24;100965.59;;;6.42;44.15
67740;BME280;54536;50.090;14.420;2023-02-04T08:40:50;100966.81;;;6.35;42.91
67740;BME280;54536;50.090;14.420;2023-02-04T08:43:16;100979.94;;;6.52;42.92
67740;BME280;54536;50.090;14.420;2023-02-04T08:45:42;100981.56;;;6.55;43.02
67740;BME280;54536;50.090;14.420;2023-02-04T08:48:09;100986.97;;;6.69;44.42
67740;BME280;54536;50.090;14.420;2023-02-04T08:50:35;100991.50;;;6.66;43.45
67740;BME280;54536;50.090;14.420;2023-02-04T08:53:01;100992.88;;;6.55;43.69
67740;BME280;54536;50.090;14.420;2023-02-04T08:55:27;100997.81;;;6.62;43.79
67740;BME280;54536;50.090;14.420;2023-02-04T08:57:55;101008.03;;;6.47;42.39
67740;BME280;54536;50.090;14.420;2023-02-04T09:00:24;101017.09;;;6.59;43.60
67740;BME280;54536;50.090;14.420;2023-02-04T09:02:50;101022.31;;;6.59;42.69
67740;BME280;54536;50.090;14.420;2023-02-04T09:05:16;101017.94;;;6.60;43.08
67740;BME280;54536;50.090;14.420;2023-02-04T09:07:42;101032.50;;;6.65;43.55
67740;BME280;54536;50.090;14.420;2023-02-04T09:10:08;101038.75;;;6.42;43.29
67740;BME280;54536;50.090;14.420;2023-02-04T09:12:35;101042.94;;;6.46;42.95
67740;BME280;54536;50.090;14.420;2023-02-04T09:15:01;101042.22;;;6.43;42.27
67740;BME280;54536;50.090;14.420;2023-02-04T09:17:27;101037.97;;;6.40;43.27
67740;BME280;54536;50.090;14.420;2023-02-04T09:19:53;101048.06;;;6.29;42.16
67740;BME280;54536;50.090;14.420;2023-02-04T09:22:19;101047.84;;;6.33;41.98
67740;BME280;54536;50.090;14.420;2023-02-04T09:24:45;101047.84;;;6.33;41.78
67740;BME280;54536;50.090;14.420;2023-02-04T09:27:11;101050.16;;;6.21;41.34
67740;BME280;54536;50.090;14.420;2023-02-04T09:29:37;101058.53;;;6.29;41.70
67740;BME280;54536;50.090;14.420;2023-02-04T09:32:04;101065.72;;;6.43;40.76
67740;BME280;54536;50.090;14.420;2023-02-04T09:34:30;101076.06;;;6.46;40.62
67740;BME280;54536;50.090;14.420;2023-02-04T09:36:56;101079.19;;;6.54;40.67
67740;BME280;54536;50.090;14.420;2023-02-04T09:39:22;101078.44;;;6.50;40.46
67740;BME280;54536;50.090;14.420;2023-02-04T09:41:50;101093.09;;;6.54;40.41
67740;BME280;54536;50.090;14.420;2023-02-04T09:44:21;101091.72;;;6.46;41.40
67740;BME280;54536;50.090;14.420;2023-02-04T09:46:56;101099.00;;;6.39;41.45
67740;BME280;54536;50.090;14.420;2023-02-04T09:49:25;101102.72;;;6.33;41.46
67740;BME280;54536;50.090;14.420;2023-02-04T09:51:53;101108.06;;;6.51;41.19
67740;BME280;54536;50.090;14.420;2023-02-04T09:54:22;101111.94;;;6.42;41.54
67740;BME280;54536;50.090;14.420;2023-02-04T09:56:50;101123.97;;;6.65;40.89
67740;BME280;54536;50.090;14.420;2023-02-04T09:59:22;101123.03;;;6.66;41.69
67740;BME280;54536;50.090;14.420;2023-02-04T10:01:55;101129.50;;;6.78;41.69
67740;BME280;54536;50.090;14.420;2023-02-04T10:04:23;101125.25;;;6.75;40.97
67740;BME280;54536;50.090;14.420;2023-02-04T10:06:51;101130.34;;;6.78;41.83
67740;BME280;54536;50.090;14.420;2023-02-04T10:09:17;101134.66;;;6.79;41.21
67740;BME280;54536;50.090;14.420;2023-02-04T10:11:50;101129.78;;;6.72;41.12
67740;BME280;54536;50.090;14.420;2023-02-04T10:14:22;101131.28;;;6.57;41.79
67740;BME280;54536;50.090;14.420;2023-02-04T10:16:58;101128.78;;;6.74;41.25
67740;BME280;54536;50.090;14.420;2023-02-04T10:19:28;101131.16;;;6.60;42.64
67740;BME280;54536;50.090;14.420;2023-02-04T10:21:56;101127.66;;;6.61;41.79
67740;BME280;54536;50.090;14.420;2023-02-04T10:24:25;101145.69;;;6.67;43.03
67740;BME280;54536;50.090;14.420;2023-02-04T10:26:53;101140.28;;;6.51;41.78
67740;BME280;54536;50.090;14.420;2023-02-04T10:29:22;101138.91;;;6.43;42.67
67740;BME280;54536;50.090;14.420;2023-02-04T10:31:52;101147.31;;;6.49;42.64
67740;BME280;54536;50.090;14.420;2023-02-04T10:34:30;101154.22;;;6.50;42.71
67740;BME280;54536;50.090;14.420;2023-02-04T10:36:59;101166.47;;;6.50;43.29
67740;BME280;54536;50.090;14.420;2023-02-04T10:39:41;101155.47;;;6.62;42.00
67740;BME280;54536;50.090;14.420;2023-02-04T10:42:26;101163.34;;;6.81;42.34
67740;BME280;54536;50.090;14.420;2023-02-04T10:44:53;101167.69;;;7.01;41.67
67740;BME280;54536;50.090;14.420;2023-02-04T10:47:24;101162.09;;;7.09;40.49
67740;BME280;54536;50.090;14.420;2023-02-04T10:49:58;101158.00;;;7.03;40.43
67740;BME280;54536;50.090;14.420;2023-02-04T10:52:41;101157.22;;;7.01;41.49
67740;BME280;54536;50.090;14.420;2023-02-04T10:55:18;101159.97;;;6.98;41.08
67740;BME280;54536;50.090;14.420;2023-02-04T10:57:47;101167.25;;;6.91;41.34
67740;BME280;54536;50.090;14.420;2023-02-04T11:00:20;101171.28;;;6.98;42.29
67740;BME280;54536;50.090;14.420;2023-02-04T11:05:33;101179.34;;;6.94;40.84
67740;BME280;54536;50.090;14.420;2023-02-04T11:08:03;101179.13;;;6.98;40.82
67740;BME280;54536;50.090;14.420;2023-02-04T11:10:44;101183.38;;;7.01;39.50
67740;BME280;54536;50.090;14.420;2023-02-04T11:13:24;101177.22;;;7.02;40.83
67740;BME280;54536;50.090;14.420;2023-02-04T11:16:10;101184.44;;;6.97;40.47
67740;BME280;54536;50.090;14.420;2023-02-04T11:18:57;101192.91;;;7.02;40.38
67740;BME280;54536;50.090;14.420;2023-02-04T11:21:27;101190.56;;;6.96;41.26
67740;BME280;54536;50.090;14.420;2023-02-04T11:26:48;101203.19;;;6.86;41.35
67740;BME280;54536;50.090;14.420;2023-02-04T11:31:42;101218.31;;;6.79;40.41
67740;BME280;54536;50.090;14.420;2023-02-04T11:37:11;101214.19;;;6.94;42.35
67740;BME280;54536;50.090;14.420;2023-02-04T11:39:44;101217.19;;;7.24;40.47
67740;BME280;54536;50.090;14.420;2023-02-04T11:42:20;101216.78;;;7.89;39.27
67740;BME280;54536;50.090;14.420;2023-02-04T11:44:53;101213.50;;;8.20;38.33
67740;BME280;54536;50.090;14.420;2023-02-04T11:47:23;101210.97;;;8.01;38.90
67740;BME280;54536;50.090;14.420;2023-02-04T11:49:57;101216.63;;;7.92;40.10
67740;BME280;54536;50.090;14.420;2023-02-04T11:52:24;101210.28;;;7.79;38.91
67740;BME280;54536;50.090;14.420;2023-02-04T11:54:58;101209.03;;;7.68;39.37
67740;BME280;54536;50.090;14.420;2023-02-04T11:57:26;101207.47;;;7.45;38.45
67740;BME280;54536;50.090;14.420;2023-02-04T11:59:54;101209.75;;;7.34;39.23
67740;BME280;54536;50.090;14.420;2023-02-04T12:02:23;101214.63;;;7.42;39.48
67740;BME280;54536;50.090;14.420;2023-02-04T12:04:52;101214.78;;;7.39;39.46
67740;BME280;54536;50.090;14.420;2023-02-04T12:07:27;101214.84;;;7.37;39.37
67740;BME280;54536;50.090;14.420;2023-02-04T12:09:54;101215.06;;;7.33;38.28
67740;BME280;54536;50.090;14.420;2023-02-04T12:12:27;101213.78;;;7.22;39.76
67740;BME280;54536;50.090;14.420;2023-02-04T12:15:02;101208.91;;;7.34;41.44
67740;BME280;54536;50.090;14.420;2023-02-04T12:17:29;101209.84;;;7.33;40.06
67740;BME280;54536;50.090;14.420;2023-02-04T12:19:57;101216.13;;;7.28;41.20
67740;BME280;54536;50.090;14.420;2023-02-04T12:22:24;101223.56;;;7.38;41.06
67740;BME280;54536;50.090;14.420;2023-02-04T12:24:50;101229.28;;;7.46;41.84
67740;BME280;54536;50.090;14.420;2023-02-04T12:27:17;101231.69;;;7.32;40.29
67740;BME280;54536;50.090;14.420;2023-02-04T12:29:44;101224.13;;;7.44;40.02
67740;BME280;54536;50.090;14.420;2023-02-04T12:32:10;101226.69;;;7.46;40.45
67740;BME280;54536;50.090;14.420;2023-02-04T12:34:36;101218.31;;;7.38;41.35
67740;BME280;54536;50.090;14.420;2023-02-04T12:37:02;101228.00;;;7.55;41.14
67740;BME280;54536;50.090;14.420;2023-02-04T12:39:28;101215.75;;;7.55;39.92
67740;BME280;54536;50.090;14.420;2023-02-04T12:41:57;101216.41;;;7.60;40.19
67740;BME280;54536;50.090;14.420;2023-02-04T12:44:23;101209.38;;;7.61;40.00
67740;BME280;54536;50.090;14.420;2023-02-04T12:46:49;101223.69;;;7.54;39.20
67740;BME280;54536;50.090;14.420;2023-02-04T12:49:16;101225.38;;;7.55;39.19
67740;BME280;54536;50.090;14.420;2023-02-04T12:51:42;101227.28;;;7.51;39.08
67740;BME280;54536;50.090;14.420;2023-02-04T12:54:08;101222.44;;;7.43;38.47
67740;BME280;54536;50.090;14.420;2023-02-04T12:56:35;101224.75;;;7.49;39.00
67740;BME280;54536;50.090;14.420;2023-02-04T12:59:01;101231.81;;;7.47;38.64
67740;BME280;54536;50.090;14.420;2023-02-04T13:01:27;101225.88;;;7.44;38.05
67740;BME280;54536;50.090;14.420;2023-02-04T13:03:53;101228.88;;;7.36;38.39
67740;BME280;54536;50.090;14.420;2023-02-04T13:06:19;101230.00;;;7.49;38.13
67740;BME280;54536;50.090;14.420;2023-02-04T13:08:48;101228.78;;;7.38;38.44